createdAt,value
2023-02-14T00:02:15.718Z,88.89
2023-02-14T00:04:45.900Z,88.55
2023-02-14T00:07:14.764Z,89.11
2023-02-14T00:09:42.951Z,87.82
2023-02-14T00:12:11.531Z,87.52
2023-02-14T00:14:58.403Z,88.71
2023-02-14T00:17:26.864Z,87.97
2023-02-14T00:19:55.028Z,87.68
2023-02-14T00:22:23.311Z,87.85
2023-02-14T00:24:51.918Z,88.02
2023-02-14T00:27:20.117Z,87.94
2023-02-14T00:29:48.400Z,88.89
2023-02-14T00:32:16.925Z,88.54
2023-02-14T00:34:46.165Z,89.79
2023-02-14T00:37:14.371Z,89.55
2023-02-14T00:39:42.910Z,89.31
2023-02-14T00:42:11.037Z,89.36
2023-02-14T00:44:40.024Z,89.80
2023-02-14T00:47:08.615Z,89.28
2023-02-14T00:49:36.703Z,89.34
2023-02-14T00:52:05.466Z,89.37
2023-02-14T00:54:33.966Z,89.77
2023-02-14T00:57:02.092Z,90.10
2023-02-14T00:59:30.741Z,89.38
2023-02-14T01:01:59.056Z,89.32
2023-02-14T01:04:27.338Z,89.47
2023-02-14T01:06:55.527Z,89.23
2023-02-14T01:09:24.090Z,88.82
2023-02-14T01:11:52.350Z,88.99
2023-02-14T01:14:20.596Z,89.15
2023-02-14T01:16:50.696Z,89.12
2023-02-14T01:19:18.825Z,90.19
2023-02-14T01:21:47.167Z,89.66
2023-02-14T01:24:15.595Z,89.06
2023-02-14T01:26:44.311Z,89.14
2023-02-14T01:29:12.665Z,89.36
2023-02-14T01:31:41.307Z,89.13
2023-02-14T01:34:09.567Z,89.83
2023-02-14T01:36:39.406Z,89.74
2023-02-14T01:39:13.613Z,89.07
2023-02-14T01:41:44.128Z,89.34
2023-02-14T01:44:15.259Z,89.15
2023-02-14T01:46:44.887Z,88.36
2023-02-14T01:49:27.451Z,88.46
2023-02-14T01:52:05.260Z,87.89
2023-02-14T01:54:38.736Z,87.70
2023-02-14T01:57:12.362Z,87.22
2023-02-14T01:59:55.167Z,87.87
2023-02-14T02:02:26.201Z,87.92
2023-02-14T02:04:56.647Z,87.22
2023-02-14T02:07:29.377Z,87.06
2023-02-14T02:10:03.726Z,87.63
2023-02-14T02:12:35.620Z,86.37
2023-02-14T02:15:06.083Z,86.65
2023-02-14T02:18:05.807Z,86.36
2023-02-14T02:21:01.698Z,86.01
2023-02-14T02:24:02.146Z,85.63
2023-02-14T02:26:30.242Z,85.80
2023-02-14T02:29:29.932Z,85.19
2023-02-14T02:32:19.770Z,85.21
2023-02-14T02:35:19.192Z,84.99
2023-02-14T02:38:16.647Z,84.77
2023-02-14T02:40:54.553Z,85.17
2023-02-14T02:43:22.754Z,85.39
2023-02-14T02:46:20.572Z,85.67
2023-02-14T02:49:42.557Z,86.00
2023-02-14T02:53:03.303Z,86.11
2023-02-14T02:55:57.792Z,85.71
2023-02-14T02:58:35.203Z,84.96
2023-02-14T03:01:09.681Z,85.28
2023-02-14T03:03:58.038Z,84.91
2023-02-14T03:06:26.071Z,84.62
2023-02-14T03:08:54.444Z,84.14
2023-02-14T03:11:24.738Z,84.42
2023-02-14T03:14:26.389Z,84.91
2023-02-14T03:17:37.578Z,83.80
2023-02-14T03:20:32.919Z,84.23
2023-02-14T03:23:14.675Z,84.37
2023-02-14T03:26:04.870Z,84.60
2023-02-14T03:28:43.888Z,85.46
2023-02-14T03:31:28.288Z,85.25
2023-02-14T03:34:25.761Z,86.37
2023-02-14T03:37:12.671Z,87.32
2023-02-14T03:39:46.040Z,88.28
2023-02-14T03:42:23.868Z,88.86
2023-02-14T03:44:55.373Z,89.14
2023-02-14T03:47:30.011Z,90.65
2023-02-14T03:50:13.340Z,93.14
2023-02-14T03:52:44.355Z,92.58
2023-02-14T03:55:17.147Z,93.72
2023-02-14T03:57:48.481Z,93.42
2023-02-14T04:00:19.063Z,94.33
2023-02-14T04:02:56.206Z,95.12
2023-02-14T04:05:27.294Z,95.71
2023-02-14T04:07:58.582Z,96.44
2023-02-14T04:10:27.101Z,96.24
2023-02-14T04:12:55.579Z,96.83
2023-02-14T04:15:23.998Z,96.75
2023-02-14T04:18:10.612Z,97.88
2023-02-14T04:20:39.447Z,97.95
2023-02-14T04:23:07.579Z,98.36
2023-02-14T04:25:35.572Z,99.19
2023-02-14T04:28:06.366Z,99.68
2023-02-14T04:30:34.811Z,100.00
2023-02-14T04:33:03.843Z,100.00
2023-02-14T04:35:32.420Z,99.58
2023-02-14T04:38:04.846Z,98.82
2023-02-14T04:40:33.948Z,98.06
2023-02-14T04:43:02.121Z,98.49
2023-02-14T04:45:30.500Z,99.18
2023-02-14T04:47:59.020Z,99.11
2023-02-14T04:50:27.141Z,100.00
2023-02-14T04:52:55.313Z,100.00
2023-02-14T04:55:24.298Z,100.00
2023-02-14T04:57:52.384Z,99.88
2023-02-14T05:00:20.754Z,98.91
2023-02-14T05:02:53.686Z,99.94
2023-02-14T05:05:21.777Z,99.17
2023-02-14T05:07:50.544Z,99.87
2023-02-14T05:10:18.959Z,99.82
2023-02-14T05:12:47.002Z,100.00
2023-02-14T05:15:15.638Z,100.00
2023-02-14T05:17:43.917Z,99.75
2023-02-14T05:20:12.142Z,99.50
2023-02-14T05:22:40.613Z,100.00
2023-02-14T05:25:09.040Z,99.60
2023-02-14T05:27:37.173Z,100.00
2023-02-14T05:30:06.345Z,100.00
2023-02-14T05:32:35.230Z,100.00
2023-02-14T05:35:04.094Z,100.00
2023-02-14T05:37:32.404Z,100.00
2023-02-14T05:40:00.692Z,100.00
2023-02-14T05:42:28.854Z,100.00
2023-02-14T05:44:57.208Z,100.00
2023-02-14T05:47:25.546Z,100.00
2023-02-14T05:49:53.647Z,100.00
2023-02-14T05:52:22.029Z,100.00
2023-02-14T05:54:50.227Z,100.00
2023-02-14T05:57:18.350Z,100.00
2023-02-14T05:59:46.855Z,100.00
2023-02-14T06:02:16.255Z,100.00
2023-02-14T06:04:44.772Z,100.00
2023-02-14T06:07:13.104Z,100.00
2023-02-14T06:09:41.426Z,100.00
2023-02-14T06:12:09.815Z,100.00
2023-02-14T06:14:38.296Z,100.00
2023-02-14T06:17:06.761Z,100.00
2023-02-14T06:19:35.923Z,100.00
2023-02-14T06:22:04.667Z,100.00
2023-02-14T06:24:32.937Z,100.00
2023-02-14T06:27:01.483Z,100.00
2023-02-14T06:29:29.563Z,100.00
2023-02-14T06:31:58.097Z,100.00
2023-02-14T06:34:26.766Z,100.00
2023-02-14T06:36:54.911Z,100.00
2023-02-14T06:39:23.121Z,100.00
2023-02-14T06:41:51.545Z,100.00
2023-02-14T06:44:19.891Z,100.00
2023-02-14T06:46:48.711Z,100.00
2023-02-14T06:49:17.416Z,97.16
2023-02-14T06:51:45.868Z,94.17
2023-02-14T06:54:14.195Z,91.22
2023-02-14T06:56:42.721Z,91.60
2023-02-14T06:59:11.017Z,93.65
2023-02-14T07:01:39.665Z,94.83
2023-02-14T07:04:08.079Z,95.36
2023-02-14T07:06:37.353Z,96.82
2023-02-14T07:09:06.318Z,97.70
2023-02-14T07:11:34.705Z,98.97
2023-02-14T07:14:03.167Z,97.82
2023-02-14T07:16:31.602Z,96.38
2023-02-14T07:19:00.607Z,97.76
2023-02-14T07:21:29.311Z,98.42
2023-02-14T07:23:57.508Z,98.94
2023-02-14T07:26:25.990Z,98.19
2023-02-14T07:28:54.290Z,97.93
2023-02-14T07:31:23.693Z,96.55
2023-02-14T07:33:52.661Z,95.37
2023-02-14T07:36:20.762Z,96.00
2023-02-14T07:38:49.714Z,96.67
2023-02-14T07:41:18.050Z,95.58
2023-02-14T07:43:46.144Z,95.51
2023-02-14T07:46:15.153Z,95.45
2023-02-14T07:48:43.614Z,94.67
2023-02-14T07:51:11.724Z,93.50
2023-02-14T07:53:40.328Z,91.92
2023-02-14T07:56:08.687Z,92.55
2023-02-14T07:58:37.229Z,91.05
2023-02-14T08:01:05.663Z,90.11
2023-02-14T08:03:34.159Z,91.59
2023-02-14T08:06:02.304Z,90.66
2023-02-14T08:08:31.919Z,88.90
2023-02-14T08:11:00.681Z,88.08
2023-02-14T08:13:29.016Z,88.09
2023-02-14T08:16:06.708Z,86.20
2023-02-14T08:18:41.075Z,86.94
2023-02-14T08:21:11.337Z,84.97
2023-02-14T08:23:39.873Z,84.19
2023-02-14T08:26:08.435Z,80.86
2023-02-14T08:28:36.714Z,80.13
2023-02-14T08:31:05.417Z,78.94
2023-02-14T08:33:33.936Z,76.31
2023-02-14T08:36:02.730Z,74.38
2023-02-14T08:38:31.500Z,71.48
2023-02-14T08:41:03.782Z,70.83
2023-02-14T08:43:34.504Z,69.33
2023-02-14T08:46:03.228Z,67.73
2023-02-14T08:48:31.500Z,68.67
2023-02-14T08:51:00.452Z,67.91
2023-02-14T08:53:29.103Z,66.94
2023-02-14T08:56:02.016Z,64.12
2023-02-14T08:58:32.777Z,63.32
2023-02-14T09:01:01.654Z,61.45
2023-02-14T09:03:30.448Z,62.59
2023-02-14T09:06:09.184Z,61.66
2023-02-14T09:08:39.029Z,61.14
2023-02-14T09:11:19.420Z,59.85
2023-02-14T09:13:49.068Z,59.56
2023-02-14T09:16:19.011Z,56.75
2023-02-14T09:18:47.745Z,59.24
2023-02-14T09:21:18.973Z,58.35
2023-02-14T09:23:47.646Z,56.78
2023-02-14T09:26:17.704Z,58.49
2023-02-14T09:28:46.998Z,55.62
2023-02-14T09:31:21.427Z,55.81
2023-02-14T09:34:09.776Z,56.19
2023-02-14T09:36:56.842Z,56.91
2023-02-14T09:39:25.226Z,53.78
2023-02-14T09:42:15.006Z,54.16
2023-02-14T09:44:54.830Z,52.80
2023-02-14T09:47:39.376Z,52.99
2023-02-14T09:50:18.326Z,53.86
2023-02-14T09:52:51.545Z,56.34
2023-02-14T09:55:20.108Z,55.48
2023-02-14T09:58:08.243Z,54.58
2023-02-14T10:01:05.021Z,55.40
2023-02-14T10:03:59.569Z,53.42
2023-02-14T10:06:48.774Z,52.86
2023-02-14T10:09:54.346Z,51.08
2023-02-14T10:12:31.287Z,51.06
2023-02-14T10:15:04.903Z,51.79
2023-02-14T10:17:49.337Z,50.23
2023-02-14T10:20:28.069Z,48.53
2023-02-14T10:23:14.761Z,47.97
2023-02-14T10:25:54.312Z,47.97
2023-02-14T10:28:31.442Z,47.52
2023-02-14T10:31:19.453Z,49.39
2023-02-14T10:33:57.894Z,48.30
2023-02-14T10:36:26.324Z,46.89
2023-02-14T10:39:30.828Z,48.32
2023-02-14T10:42:21.333Z,49.25
2023-02-14T10:45:02.723Z,51.49
2023-02-14T10:47:57.334Z,48.61
2023-02-14T10:50:34.963Z,48.33
2023-02-14T10:53:26.419Z,48.06
2023-02-14T10:56:04.186Z,50.03
2023-02-14T10:58:38.441Z,50.23
2023-02-14T11:01:14.232Z,49.29
2023-02-14T11:04:06.635Z,48.60
2023-02-14T11:06:34.985Z,46.65
2023-02-14T11:09:04.449Z,49.72
2023-02-14T11:11:39.094Z,50.43
2023-02-14T11:14:32.370Z,53.22
2023-02-14T11:17:20.150Z,52.17
2023-02-14T11:19:58.771Z,50.77
2023-02-14T11:22:31.285Z,49.68
2023-02-14T11:25:17.976Z,51.96
2023-02-14T11:27:50.233Z,52.32
2023-02-14T11:30:26.435Z,53.24
2023-02-14T11:32:57.561Z,52.54
2023-02-14T11:35:33.908Z,53.05
2023-02-14T11:38:05.976Z,51.37
2023-02-14T11:40:36.181Z,53.95
2023-02-14T11:43:14.852Z,53.85
2023-02-14T11:45:45.918Z,50.73
2023-02-14T11:48:37.177Z,52.35
2023-02-14T11:51:15.724Z,51.99
2023-02-14T11:53:45.850Z,51.87
2023-02-14T11:56:20.343Z,51.38
2023-02-14T11:58:54.498Z,51.36
2023-02-14T12:01:38.882Z,52.71
2023-02-14T12:04:23.346Z,52.42
2023-02-14T12:06:51.522Z,53.16
2023-02-14T12:09:22.734Z,54.92
2023-02-14T12:11:57.930Z,53.15
2023-02-14T12:14:35.491Z,54.48
2023-02-14T12:17:25.935Z,53.67
2023-02-14T12:20:12.146Z,53.13
2023-02-14T12:22:58.316Z,53.51
2023-02-14T12:25:40.026Z,55.81
2023-02-14T12:28:18.837Z,54.46
2023-02-14T12:30:49.553Z,56.03
2023-02-14T12:33:23.740Z,56.01
2023-02-14T12:35:55.413Z,57.45
2023-02-14T12:38:39.413Z,58.51
2023-02-14T12:41:23.911Z,56.81
2023-02-14T12:44:12.619Z,57.31
2023-02-14T12:46:51.455Z,57.73
2023-02-14T12:49:44.513Z,57.35
2023-02-14T12:53:01.734Z,57.59
2023-02-14T12:55:49.561Z,57.38
2023-02-14T12:58:45.166Z,57.37
2023-02-14T13:01:16.330Z,59.08
2023-02-14T13:04:05.198Z,57.53
2023-02-14T13:06:41.256Z,57.89
2023-02-14T13:09:24.649Z,58.83
2023-02-14T13:11:56.236Z,58.45
2023-02-14T13:14:38.126Z,58.87
2023-02-14T13:17:44.130Z,58.57
2023-02-14T13:20:43.319Z,58.57
2023-02-14T13:23:43.588Z,57.27
2023-02-14T13:26:14.476Z,57.84
2023-02-14T13:28:55.955Z,58.08
2023-02-14T13:31:24.992Z,58.15
2023-02-14T13:34:28.562Z,59.03
2023-02-14T13:36:59.371Z,58.25
2023-02-14T13:39:44.329Z,58.45
2023-02-14T13:42:13.200Z,58.79
2023-02-14T13:44:50.272Z,58.93
2023-02-14T13:47:24.632Z,58.86
2023-02-14T13:50:03.218Z,58.86
2023-02-14T13:52:48.775Z,58.98
2023-02-14T13:55:21.867Z,58.63
2023-02-14T13:58:07.654Z,59.04
2023-02-14T14:00:41.613Z,58.90
2023-02-14T14:03:36.742Z,59.77
2023-02-14T14:06:10.897Z,60.16
2023-02-14T14:08:48.840Z,59.02
2023-02-14T14:11:23.135Z,59.79
2023-02-14T14:13:59.297Z,59.58
2023-02-14T14:16:35.756Z,59.28
2023-02-14T14:19:04.896Z,59.68
2023-02-14T14:21:43.692Z,60.99
2023-02-14T14:24:27.597Z,59.73
2023-02-14T14:27:24.647Z,59.75
2023-02-14T14:30:01.491Z,60.36
2023-02-14T14:32:33.856Z,59.77
2023-02-14T14:35:05.743Z,60.03
2023-02-14T14:37:56.633Z,59.38
2023-02-14T14:40:35.769Z,59.00
2023-02-14T14:43:31.820Z,59.63
2023-02-14T14:46:02.741Z,59.75
2023-02-14T14:48:42.473Z,59.85
2023-02-14T14:51:28.581Z,59.09
2023-02-14T14:54:08.579Z,58.86
2023-02-14T14:56:44.918Z,58.64
2023-02-14T14:59:37.400Z,58.47
2023-02-14T15:02:41.491Z,58.86
2023-02-14T15:05:23.334Z,58.80
2023-02-14T15:07:52.371Z,59.54
2023-02-14T15:10:26.598Z,59.02
2023-02-14T15:13:17.462Z,59.60
2023-02-14T15:15:51.360Z,59.73
2023-02-14T15:18:21.359Z,59.38
2023-02-14T15:20:51.919Z,59.75
2023-02-14T15:23:24.104Z,60.10
2023-02-14T15:25:52.777Z,60.04
2023-02-14T15:28:28.456Z,60.22
2023-02-14T15:31:05.474Z,60.90
2023-02-14T15:33:34.664Z,60.91
2023-02-14T15:36:06.803Z,61.20
2023-02-14T15:38:41.927Z,61.14
2023-02-14T15:41:12.580Z,62.06
2023-02-14T15:43:41.367Z,63.13
2023-02-14T15:46:18.532Z,63.71
2023-02-14T15:48:48.387Z,63.82
2023-02-14T15:51:24.653Z,63.68
2023-02-14T15:54:05.509Z,63.60
2023-02-14T15:56:43.265Z,64.44
2023-02-14T15:59:14.775Z,64.11
2023-02-14T16:02:03.841Z,64.29
2023-02-14T16:04:35.252Z,64.55
2023-02-14T16:07:23.406Z,64.64
2023-02-14T16:10:20.493Z,63.98
2023-02-14T16:13:01.258Z,65.11
2023-02-14T16:15:35.786Z,65.06
2023-02-14T16:18:16.720Z,65.50
2023-02-14T16:20:48.888Z,66.28
2023-02-14T16:23:19.391Z,66.57
2023-02-14T16:25:48.947Z,66.81
2023-02-14T16:28:17.792Z,66.75
2023-02-14T16:30:53.002Z,67.53
2023-02-14T16:33:25.393Z,67.53
2023-02-14T16:35:55.109Z,68.09
2023-02-14T16:38:23.722Z,68.31
2023-02-14T16:40:54.491Z,68.76
2023-02-14T16:43:23.529Z,68.88
2023-02-14T16:45:54.020Z,69.20
2023-02-14T16:48:22.955Z,69.20
2023-02-14T16:50:51.706Z,69.48
2023-02-14T16:53:27.909Z,69.52
2023-02-14T16:55:58.039Z,69.44
2023-02-14T16:58:34.686Z,69.97
2023-02-14T17:01:07.958Z,69.61
2023-02-14T17:03:36.168Z,70.34
2023-02-14T17:06:06.288Z,70.54
2023-02-14T17:08:35.604Z,70.39
2023-02-14T17:11:05.755Z,70.10
2023-02-14T17:13:40.635Z,69.97
2023-02-14T17:16:11.986Z,69.98
2023-02-14T17:18:43.029Z,69.50
2023-02-14T17:21:11.915Z,68.99
2023-02-14T17:23:40.270Z,70.11
2023-02-14T17:26:09.110Z,70.53
2023-02-14T17:28:37.670Z,71.70
2023-02-14T17:31:06.916Z,71.37
2023-02-14T17:33:37.152Z,71.63
2023-02-14T17:36:10.094Z,72.00
2023-02-14T17:38:43.354Z,71.99
2023-02-14T17:41:29.937Z,72.08
2023-02-14T17:44:01.997Z,71.84
2023-02-14T17:46:31.578Z,72.33
2023-02-14T17:49:02.744Z,72.33
2023-02-14T17:51:31.708Z,73.18
2023-02-14T17:53:59.847Z,73.12
2023-02-14T17:56:28.220Z,72.90
2023-02-14T17:58:57.092Z,72.74
2023-02-14T18:01:28.025Z,74.07
2023-02-14T18:03:56.845Z,72.97
2023-02-14T18:06:26.724Z,73.40
2023-02-14T18:08:57.963Z,74.16
2023-02-14T18:11:28.101Z,74.31
2023-02-14T18:13:58.813Z,74.29
2023-02-14T18:16:27.667Z,74.39
2023-02-14T18:18:56.328Z,75.76
2023-02-14T18:21:25.447Z,75.54
2023-02-14T18:23:54.368Z,74.51
2023-02-14T18:26:22.679Z,74.49
2023-02-14T18:28:53.418Z,75.31
2023-02-14T18:31:22.216Z,76.04
2023-02-14T18:33:51.000Z,76.72
2023-02-14T18:36:21.812Z,77.11
2023-02-14T18:38:50.595Z,77.05
2023-02-14T18:41:21.453Z,77.85
2023-02-14T18:43:50.879Z,77.15
2023-02-14T18:46:22.565Z,76.64
2023-02-14T18:48:52.258Z,76.81
2023-02-14T18:51:30.486Z,77.07
2023-02-14T18:54:01.438Z,76.70
2023-02-14T18:56:33.488Z,77.70
2023-02-14T18:59:05.857Z,77.68
2023-02-14T19:01:37.767Z,78.09
2023-02-14T19:04:08.995Z,77.33
2023-02-14T19:06:38.219Z,77.54
2023-02-14T19:09:12.347Z,77.99
2023-02-14T19:11:41.558Z,77.78
2023-02-14T19:14:12.717Z,76.84
2023-02-14T19:16:50.355Z,77.45
2023-02-14T19:19:20.037Z,77.40
2023-02-14T19:21:48.675Z,77.15
2023-02-14T19:24:19.507Z,78.18
2023-02-14T19:26:48.425Z,78.24
2023-02-14T19:29:18.659Z,78.70
2023-02-14T19:31:49.910Z,78.12
2023-02-14T19:34:23.681Z,77.75
2023-02-14T19:36:53.488Z,78.69
2023-02-14T19:39:23.223Z,79.04
2023-02-14T19:41:52.316Z,78.78
2023-02-14T19:44:24.167Z,79.39
2023-02-14T19:46:56.711Z,80.11
2023-02-14T19:49:27.846Z,79.39
2023-02-14T19:51:57.334Z,79.61
2023-02-14T19:54:26.081Z,78.89
2023-02-14T19:56:56.248Z,79.07
2023-02-14T19:59:25.346Z,81.14
2023-02-14T20:01:54.675Z,82.63
2023-02-14T20:04:27.606Z,83.10
2023-02-14T20:06:57.106Z,83.02
2023-02-14T20:09:26.614Z,83.98
2023-02-14T20:11:57.852Z,84.46
2023-02-14T20:14:43.654Z,85.29
2023-02-14T20:17:19.782Z,86.04
2023-02-14T20:19:49.075Z,84.93
2023-02-14T20:22:17.888Z,84.76
2023-02-14T20:24:46.647Z,85.93
2023-02-14T20:27:15.439Z,86.17
2023-02-14T20:29:45.015Z,86.05
2023-02-14T20:32:15.831Z,85.34
2023-02-14T20:34:45.292Z,85.79
2023-02-14T20:37:14.661Z,85.50
2023-02-14T20:39:43.632Z,86.62
2023-02-14T20:42:12.348Z,86.99
2023-02-14T20:44:41.598Z,87.57
2023-02-14T20:47:11.316Z,87.77
2023-02-14T20:49:44.655Z,87.30
2023-02-14T20:52:13.447Z,86.11
2023-02-14T20:54:42.227Z,86.36
2023-02-14T20:57:10.617Z,84.67
2023-02-14T20:59:44.343Z,84.58
2023-02-14T21:02:13.906Z,85.83
2023-02-14T21:04:44.426Z,88.62
2023-02-14T21:07:13.210Z,88.40
2023-02-14T21:09:41.681Z,87.54
2023-02-14T21:12:10.401Z,86.84
2023-02-14T21:14:39.362Z,88.38
2023-02-14T21:17:07.717Z,87.88
2023-02-14T21:19:36.337Z,87.75
2023-02-14T21:22:06.330Z,88.00
2023-02-14T21:24:34.812Z,88.63
2023-02-14T21:27:04.460Z,89.02
2023-02-14T21:29:33.282Z,89.58
2023-02-14T21:32:03.618Z,89.33
2023-02-14T21:34:32.296Z,89.47
2023-02-14T21:37:01.502Z,90.88
2023-02-14T21:39:31.057Z,89.99
2023-02-14T21:42:01.048Z,91.19
2023-02-14T21:44:48.263Z,90.73
2023-02-14T21:47:16.964Z,89.64
2023-02-14T21:50:04.515Z,89.75
2023-02-14T21:52:34.300Z,91.87
2023-02-14T21:55:03.246Z,90.79
2023-02-14T21:57:34.954Z,90.13
2023-02-14T22:00:05.619Z,90.99
2023-02-14T22:02:40.125Z,91.49
2023-02-14T22:05:08.796Z,92.14
2023-02-14T22:07:37.764Z,92.09
2023-02-14T22:10:06.747Z,92.24
2023-02-14T22:12:35.310Z,92.69
2023-02-14T22:15:03.779Z,94.12
2023-02-14T22:17:33.352Z,94.01
2023-02-14T22:20:01.801Z,92.92
2023-02-14T22:22:29.928Z,93.54
2023-02-14T22:25:01.189Z,94.73
2023-02-14T22:27:30.245Z,95.24
2023-02-14T22:29:58.581Z,94.67
2023-02-14T22:32:26.848Z,93.88
2023-02-14T22:34:55.288Z,93.83
2023-02-14T22:37:23.367Z,93.80
2023-02-14T22:39:51.770Z,93.83
2023-02-14T22:42:20.317Z,93.93
2023-02-14T22:44:48.537Z,96.18
2023-02-14T22:47:16.778Z,94.90
2023-02-14T22:49:45.947Z,94.21
2023-02-14T22:52:14.151Z,94.43
2023-02-14T22:54:42.738Z,95.35
2023-02-14T22:57:11.094Z,95.92
2023-02-14T22:59:40.036Z,95.76
2023-02-14T23:02:09.908Z,96.40
2023-02-14T23:04:38.692Z,96.29
2023-02-14T23:07:06.973Z,95.88
2023-02-14T23:09:35.094Z,96.50
2023-02-14T23:12:04.780Z,96.62
2023-02-14T23:14:51.892Z,95.62
2023-02-14T23:17:46.527Z,96.00
2023-02-14T23:20:43.902Z,97.23
2023-02-14T23:23:12.344Z,96.66
2023-02-14T23:25:43.258Z,96.45
2023-02-14T23:28:11.343Z,97.53
2023-02-14T23:30:39.897Z,97.95
2023-02-14T23:33:08.302Z,97.94
2023-02-14T23:35:37.851Z,98.61
2023-02-14T23:38:06.694Z,98.02
2023-02-14T23:40:55.121Z,98.90
2023-02-14T23:43:23.621Z,100.00
2023-02-14T23:45:52.411Z,99.96
2023-02-14T23:48:20.684Z,99.09
2023-02-14T23:50:49.232Z,99.62
2023-02-14T23:53:17.775Z,100.00
2023-02-14T23:55:46.178Z,99.57
2023-02-14T23:58:14.540Z,98.89
